sensor_id;sensor_type;location;lat;lon;timestamp;pressure;altitude;pressure_sealevel;temperature;humidity
78299;BME280;67556;55.656;12.590;2023-02-27T00:00:07;102724.66;;;2.22;58.46
78299;BME280;67556;55.656;12.590;2023-02-27T00:02:39;102730.84;;;2.22;58.78
78299;BME280;67556;55.656;12.590;2023-02-27T00:05:06;102733.47;;;2.22;57.82
78299;BME280;67556;55.656;12.590;2023-02-27T00:07:32;102736.72;;;2.20;58.13
78299;BME280;67556;55.656;12.590;2023-02-27T00:10:02;102733.66;;;2.15;58.52
78299;BME280;67556;55.656;12.590;2023-02-27T00:12:29;102732.41;;;2.12;58.97
78299;BME280;67556;55.656;12.590;2023-02-27T00:15:03;102739.19;;;2.18;58.76
78299;BME280;67556;55.656;12.590;2023-02-27T00:17:30;102737.94;;;2.15;59.17
78299;BME280;67556;55.656;12.590;2023-02-27T00:19:57;102737.66;;;2.12;58.75
78299;BME280;67556;55.656;12.590;2023-02-27T00:22:24;102736.44;;;2.08;58.42
78299;BME280;67556;55.656;12.590;2023-02-27T00:24:52;102712.34;;;1.95;58.91
78299;BME280;67556;55.656;12.590;2023-02-27T00:27:18;102727.47;;;1.89;58.97
78299;BME280;67556;55.656;12.590;2023-02-27T00:29:45;102733.97;;;1.84;59.65
78299;BME280;67556;55.656;12.590;2023-02-27T00:32:11;102735.66;;;1.74;60.04
78299;BME280;67556;55.656;12.590;2023-02-27T00:34:39;102732.38;;;1.68;59.98
78299;BME280;67556;55.656;12.590;2023-02-27T00:37:06;102740.44;;;1.61;60.31
78299;BME280;67556;55.656;12.590;2023-02-27T00:39:33;102747.53;;;1.54;60.47
78299;BME280;67556;55.656;12.590;2023-02-27T00:42:00;102749.50;;;1.47;60.52
78299;BME280;67556;55.656;12.590;2023-02-27T00:44:27;102733.00;;;1.40;60.30
78299;BME280;67556;55.656;12.590;2023-02-27T00:46:53;102744.25;;;1.39;60.75
78299;BME280;67556;55.656;12.590;2023-02-27T00:49:20;102745.94;;;1.38;60.71
78299;BME280;67556;55.656;12.590;2023-02-27T00:51:49;102752.44;;;1.33;60.70
78299;BME280;67556;55.656;12.590;2023-02-27T00:54:17;102752.91;;;1.38;60.73
78299;BME280;67556;55.656;12.590;2023-02-27T00:56:45;102758.31;;;1.39;60.83
78299;BME280;67556;55.656;12.590;2023-02-27T00:59:13;102752.28;;;1.40;61.16
78299;BME280;67556;55.656;12.590;2023-02-27T01:01:39;102752.78;;;1.45;60.79
78299;BME280;67556;55.656;12.590;2023-02-27T01:04:06;102755.41;;;1.45;60.68
78299;BME280;67556;55.656;12.590;2023-02-27T01:06:33;102762.34;;;1.44;60.94
78299;BME280;67556;55.656;12.590;2023-02-27T01:09:00;102762.63;;;1.39;60.89
78299;BME280;67556;55.656;12.590;2023-02-27T01:11:27;102759.84;;;1.37;60.76
78299;BME280;67556;55.656;12.590;2023-02-27T01:13:53;102758.78;;;1.35;60.64
78299;BME280;67556;55.656;12.590;2023-02-27T01:16:20;102760.44;;;1.35;60.51
78299;BME280;67556;55.656;12.590;2023-02-27T01:18:47;102761.41;;;1.35;60.73
78299;BME280;67556;55.656;12.590;2023-02-27T01:21:13;102760.44;;;1.35;60.53
78299;BME280;67556;55.656;12.590;2023-02-27T01:23:39;102763.69;;;1.23;61.25
78299;BME280;67556;55.656;12.590;2023-02-27T01:26:07;102762.47;;;1.37;60.34
78299;BME280;67556;55.656;12.590;2023-02-27T01:28:34;102759.53;;;1.43;60.52
78299;BME280;67556;55.656;12.590;2023-02-27T01:31:01;102760.00;;;1.39;60.48
78299;BME280;67556;55.656;12.590;2023-02-27T01:33:27;102767.41;;;1.43;60.57
78299;BME280;67556;55.656;12.590;2023-02-27T01:35:54;102756.16;;;1.44;60.07
78299;BME280;67556;55.656;12.590;2023-02-27T01:38:20;102763.88;;;1.42;60.53
78299;BME280;67556;55.656;12.590;2023-02-27T01:40:47;102766.50;;;1.42;60.36
78299;BME280;67556;55.656;12.590;2023-02-27T01:43:17;102768.31;;;1.35;60.31
78299;BME280;67556;55.656;12.590;2023-02-27T01:45:45;102764.47;;;1.22;60.71
78299;BME280;67556;55.656;12.590;2023-02-27T01:48:18;102760.25;;;1.16;60.79
78299;BME280;67556;55.656;12.590;2023-02-27T01:50:48;102768.44;;;1.10;60.72
78299;BME280;67556;55.656;12.590;2023-02-27T01:53:24;102773.63;;;1.02;60.77
78299;BME280;67556;55.656;12.590;2023-02-27T01:55:52;102772.97;;;0.95;61.03
78299;BME280;67556;55.656;12.590;2023-02-27T01:58:21;102771.72;;;0.92;61.35
78299;BME280;67556;55.656;12.590;2023-02-27T02:00:48;102771.88;;;0.85;61.71
78299;BME280;67556;55.656;12.590;2023-02-27T02:03:21;102781.88;;;0.80;62.31
78299;BME280;67556;55.656;12.590;2023-02-27T02:05:52;102780.44;;;0.75;62.24
78299;BME280;67556;55.656;12.590;2023-02-27T02:08:22;102776.25;;;0.68;61.87
78299;BME280;67556;55.656;12.590;2023-02-27T02:10:50;102781.50;;;0.68;62.09
78299;BME280;67556;55.656;12.590;2023-02-27T02:13:21;102788.16;;;0.73;62.36
78299;BME280;67556;55.656;12.590;2023-02-27T02:16:01;102789.50;;;0.70;62.31
78299;BME280;67556;55.656;12.590;2023-02-27T02:18:33;102789.94;;;0.66;62.46
78299;BME280;67556;55.656;12.590;2023-02-27T02:21:50;102785.34;;;0.63;62.21
78299;BME280;67556;55.656;12.590;2023-02-27T02:24:46;102796.25;;;0.59;62.23
78299;BME280;67556;55.656;12.590;2023-02-27T02:27:26;102796.16;;;0.50;62.98
78299;BME280;67556;55.656;12.590;2023-02-27T02:30:31;102794.06;;;0.55;63.83
78299;BME280;67556;55.656;12.590;2023-02-27T02:33:27;102783.88;;;0.58;63.30
78299;BME280;67556;55.656;12.590;2023-02-27T02:36:23;102794.22;;;0.57;63.07
78299;BME280;67556;55.656;12.590;2023-02-27T02:39:10;102795.59;;;0.53;63.39
78299;BME280;67556;55.656;12.590;2023-02-27T02:41:52;102797.44;;;0.54;63.51
78299;BME280;67556;55.656;12.590;2023-02-27T02:44:28;102805.00;;;0.51;63.31
78299;BME280;67556;55.656;12.590;2023-02-27T02:47:04;102793.72;;;0.52;63.84
78299;BME280;67556;55.656;12.590;2023-02-27T02:49:41;102802.03;;;0.48;62.60
78299;BME280;67556;55.656;12.590;2023-02-27T02:52:15;102793.19;;;0.39;64.34
78299;BME280;67556;55.656;12.590;2023-02-27T02:54:51;102792.41;;;0.40;63.39
78299;BME280;67556;55.656;12.590;2023-02-27T02:57:30;102790.22;;;0.36;63.44
78299;BME280;67556;55.656;12.590;2023-02-27T03:00:02;102796.38;;;0.36;64.81
78299;BME280;67556;55.656;12.590;2023-02-27T03:02:35;102792.69;;;0.34;64.29
78299;BME280;67556;55.656;12.590;2023-02-27T03:05:06;102796.38;;;0.36;64.65
78299;BME280;67556;55.656;12.590;2023-02-27T03:07:38;102798.66;;;0.33;66.36
78299;BME280;67556;55.656;12.590;2023-02-27T03:10:11;102796.06;;;0.33;66.18
78299;BME280;67556;55.656;12.590;2023-02-27T03:12:43;102802.28;;;0.02;67.48
78299;BME280;67556;55.656;12.590;2023-02-27T03:15:15;102804.97;;;0.27;66.48
78299;BME280;67556;55.656;12.590;2023-02-27T03:17:47;102806.53;;;0.33;66.40
78299;BME280;67556;55.656;12.590;2023-02-27T03:20:20;102804.09;;;0.35;66.19
78299;BME280;67556;55.656;12.590;2023-02-27T03:22:53;102804.09;;;0.35;64.67
78299;BME280;67556;55.656;12.590;2023-02-27T03:25:24;102805.59;;;0.33;65.69
78299;BME280;67556;55.656;12.590;2023-02-27T03:27:55;102806.47;;;0.24;66.67
78299;BME280;67556;55.656;12.590;2023-02-27T03:30:28;102812.56;;;0.16;66.45
78299;BME280;67556;55.656;12.590;2023-02-27T03:33:00;102803.84;;;0.24;66.69
78299;BME280;67556;55.656;12.590;2023-02-27T03:35:32;102807.31;;;0.32;66.46
78299;BME280;67556;55.656;12.590;2023-02-27T03:38:08;102808.41;;;0.34;66.59
78299;BME280;67556;55.656;12.590;2023-02-27T03:40:47;102816.03;;;0.08;68.00
78299;BME280;67556;55.656;12.590;2023-02-27T03:43:20;102807.03;;;0.13;68.80
78299;BME280;67556;55.656;12.590;2023-02-27T03:45:53;102811.28;;;0.29;67.46
78299;BME280;67556;55.656;12.590;2023-02-27T03:48:21;102810.44;;;0.21;66.14
78299;BME280;67556;55.656;12.590;2023-02-27T03:50:48;102811.53;;;0.39;64.84
78299;BME280;67556;55.656;12.590;2023-02-27T03:53:24;102815.22;;;0.41;65.97
78299;BME280;67556;55.656;12.590;2023-02-27T03:55:56;102812.59;;;0.41;65.59
78299;BME280;67556;55.656;12.590;2023-02-27T03:58:24;102817.44;;;-0.11;68.73
78299;BME280;67556;55.656;12.590;2023-02-27T04:03:30;102817.00;;;0.33;66.71
78299;BME280;67556;55.656;12.590;2023-02-27T04:05:58;102822.59;;;0.36;65.43
78299;BME280;67556;55.656;12.590;2023-02-27T04:08:53;102834.00;;;0.37;65.98
78299;BME280;67556;55.656;12.590;2023-02-27T04:11:33;102827.69;;;0.35;66.99
78299;BME280;67556;55.656;12.590;2023-02-27T04:14:13;102817.00;;;0.33;67.22
78299;BME280;67556;55.656;12.590;2023-02-27T04:16:59;102835.13;;;0.39;66.90
78299;BME280;67556;55.656;12.590;2023-02-27T04:19:46;102832.75;;;0.33;66.00
78299;BME280;67556;55.656;12.590;2023-02-27T04:22:29;102836.28;;;0.34;66.47
78299;BME280;67556;55.656;12.590;2023-02-27T04:25:09;102849.72;;;0.37;66.71
78299;BME280;67556;55.656;12.590;2023-02-27T04:27:50;102851.72;;;0.15;68.56
78299;BME280;67556;55.656;12.590;2023-02-27T04:30:26;102852.56;;;-0.09;69.54
78299;BME280;67556;55.656;12.590;2023-02-27T04:32:55;102859.84;;;0.09;69.27
78299;BME280;67556;55.656;12.590;2023-02-27T04:35:34;102866.09;;;0.18;68.91
78299;BME280;67556;55.656;12.590;2023-02-27T04:38:09;102857.78;;;0.38;68.90
78299;BME280;67556;55.656;12.590;2023-02-27T04:40:55;102863.38;;;0.66;67.84
78299;BME280;67556;55.656;12.590;2023-02-27T04:43:27;102856.44;;;0.66;67.27
78299;BME280;67556;55.656;12.590;2023-02-27T04:45:57;102846.03;;;0.35;68.81
78299;BME280;67556;55.656;12.590;2023-02-27T04:48:29;102853.63;;;0.40;68.63
78299;BME280;67556;55.656;12.590;2023-02-27T04:51:03;102848.75;;;0.28;69.93
78299;BME280;67556;55.656;12.590;2023-02-27T04:53:45;102858.44;;;0.44;69.64
78299;BME280;67556;55.656;12.590;2023-02-27T04:56:29;102859.53;;;0.46;69.80
78299;BME280;67556;55.656;12.590;2023-02-27T04:58:59;102861.16;;;0.78;68.52
78299;BME280;67556;55.656;12.590;2023-02-27T05:01:35;102868.47;;;0.64;68.69
78299;BME280;67556;55.656;12.590;2023-02-27T05:04:04;102866.81;;;0.73;69.11
78299;BME280;67556;55.656;12.590;2023-02-27T05:06:35;102864.03;;;0.96;68.38
78299;BME280;67556;55.656;12.590;2023-02-27T05:09:08;102874.91;;;1.08;67.82
78299;BME280;67556;55.656;12.590;2023-02-27T05:11:43;102872.75;;;1.13;67.25
78299;BME280;67556;55.656;12.590;2023-02-27T05:14:17;102871.84;;;1.12;66.99
78299;BME280;67556;55.656;12.590;2023-02-27T05:16:52;102863.63;;;1.09;67.22
78299;BME280;67556;55.656;12.590;2023-02-27T05:19:21;102877.72;;;1.10;67.92
78299;BME280;67556;55.656;12.590;2023-02-27T05:21:55;102876.59;;;1.08;67.41
78299;BME280;67556;55.656;12.590;2023-02-27T05:24:32;102886.94;;;1.06;68.20
78299;BME280;67556;55.656;12.590;2023-02-27T05:27:18;102890.66;;;1.08;68.13
78299;BME280;67556;55.656;12.590;2023-02-27T05:29:49;102889.88;;;1.09;68.36
78299;BME280;67556;55.656;12.590;2023-02-27T05:32:23;102890.31;;;1.05;68.61
78299;BME280;67556;55.656;12.590;2023-02-27T05:34:56;102897.75;;;1.09;69.73
78299;BME280;67556;55.656;12.590;2023-02-27T05:37:29;102892.84;;;1.12;70.18
78299;BME280;67556;55.656;12.590;2023-02-27T05:39:59;102893.66;;;1.20;71.27
78299;BME280;67556;55.656;12.590;2023-02-27T05:42:37;102891.22;;;1.30;70.47
78299;BME280;67556;55.656;12.590;2023-02-27T05:45:09;102885.81;;;1.29;71.17
78299;BME280;67556;55.656;12.590;2023-02-27T05:47:40;102893.28;;;1.41;69.76
78299;BME280;67556;55.656;12.590;2023-02-27T05:50:12;102888.03;;;1.41;70.52
78299;BME280;67556;55.656;12.590;2023-02-27T05:52:41;102901.53;;;1.53;70.88
78299;BME280;67556;55.656;12.590;2023-02-27T05:55:14;102896.75;;;1.58;70.90
78299;BME280;67556;55.656;12.590;2023-02-27T05:57:43;102903.28;;;1.61;70.68
78299;BME280;67556;55.656;12.590;2023-02-27T06:00:24;102907.16;;;1.65;70.47
78299;BME280;67556;55.656;12.590;2023-02-27T06:02:56;102900.78;;;1.63;71.06
78299;BME280;67556;55.656;12.590;2023-02-27T06:05:24;102901.72;;;1.63;70.76
78299;BME280;67556;55.656;12.590;2023-02-27T06:07:51;102896.75;;;1.58;71.23
78299;BME280;67556;55.656;12.590;2023-02-27T06:10:19;102890.94;;;1.69;70.91
78299;BME280;67556;55.656;12.590;2023-02-27T06:12:45;102893.38;;;1.67;70.83
78299;BME280;67556;55.656;12.590;2023-02-27T06:15:13;102901.53;;;1.53;71.55
78299;BME280;67556;55.656;12.590;2023-02-27T06:17:49;102893.00;;;1.47;72.50
78299;BME280;67556;55.656;12.590;2023-02-27T06:20:17;102884.44;;;1.65;72.07
78299;BME280;67556;55.656;12.590;2023-02-27T06:22:44;102882.75;;;1.74;71.45
78299;BME280;67556;55.656;12.590;2023-02-27T06:25:11;102889.03;;;1.59;72.07
78299;BME280;67556;55.656;12.590;2023-02-27T06:27:39;102881.97;;;1.67;72.11
78299;BME280;67556;55.656;12.590;2023-02-27T06:30:06;102883.69;;;1.75;71.86
78299;BME280;67556;55.656;12.590;2023-02-27T06:32:34;102891.13;;;1.88;71.75
78299;BME280;67556;55.656;12.590;2023-02-27T06:35:01;102888.19;;;1.93;71.71
78299;BME280;67556;55.656;12.590;2023-02-27T06:37:28;102895.50;;;1.96;70.72
78299;BME280;67556;55.656;12.590;2023-02-27T06:39:55;102893.19;;;1.99;71.61
78299;BME280;67556;55.656;12.590;2023-02-27T06:42:22;102897.22;;;2.04;71.40
78299;BME280;67556;55.656;12.590;2023-02-27T06:44:49;102879.25;;;2.00;70.79
78299;BME280;67556;55.656;12.590;2023-02-27T06:47:17;102890.72;;;2.09;71.62
78299;BME280;67556;55.656;12.590;2023-02-27T06:49:45;102894.59;;;2.13;71.68
78299;BME280;67556;55.656;12.590;2023-02-27T06:52:11;102900.28;;;1.91;72.57
78299;BME280;67556;55.656;12.590;2023-02-27T06:54:38;102908.00;;;1.90;72.69
78299;BME280;67556;55.656;12.590;2023-02-27T06:57:04;102889.09;;;1.85;72.91
78299;BME280;67556;55.656;12.590;2023-02-27T06:59:31;102904.94;;;2.03;72.82
78299;BME280;67556;55.656;12.590;2023-02-27T07:01:58;102899.50;;;1.92;73.78
78299;BME280;67556;55.656;12.590;2023-02-27T07:04:24;102899.03;;;1.96;73.59
78299;BME280;67556;55.656;12.590;2023-02-27T07:07:03;102905.56;;;2.17;73.27
78299;BME280;67556;55.656;12.590;2023-02-27T07:09:48;102899.69;;;2.03;74.04
78299;BME280;67556;55.656;12.590;2023-02-27T07:12:15;102897.81;;;2.10;74.19
78299;BME280;67556;55.656;12.590;2023-02-27T07:14:43;102894.91;;;2.16;73.85
78299;BME280;67556;55.656;12.590;2023-02-27T07:17:28;102900.97;;;2.23;74.19
78299;BME280;67556;55.656;12.590;2023-02-27T07:19:58;102907.06;;;1.98;74.88
78299;BME280;67556;55.656;12.590;2023-02-27T07:22:26;102909.41;;;2.04;74.98
78299;BME280;67556;55.656;12.590;2023-02-27T07:24:52;102907.16;;;2.41;73.86
78299;BME280;67556;55.656;12.590;2023-02-27T07:27:20;102915.19;;;2.34;73.39
78299;BME280;67556;55.656;12.590;2023-02-27T07:29:47;102923.19;;;2.10;74.88
78299;BME280;67556;55.656;12.590;2023-02-27T07:32:14;102909.59;;;2.22;74.43
78299;BME280;67556;55.656;12.590;2023-02-27T07:34:41;102916.41;;;2.20;75.14
78299;BME280;67556;55.656;12.590;2023-02-27T07:37:08;102915.63;;;2.30;75.14
78299;BME280;67556;55.656;12.590;2023-02-27T07:39:41;102910.22;;;2.20;75.49
78299;BME280;67556;55.656;12.590;2023-02-27T07:42:14;102918.72;;;2.17;76.03
78299;BME280;67556;55.656;12.590;2023-02-27T07:45:00;102912.66;;;2.10;76.52
78299;BME280;67556;55.656;12.590;2023-02-27T07:47:40;102926.16;;;2.30;76.12
78299;BME280;67556;55.656;12.590;2023-02-27T07:50:07;102918.28;;;2.39;75.35
78299;BME280;67556;55.656;12.590;2023-02-27T07:52:39;102930.22;;;2.61;74.66
78299;BME280;67556;55.656;12.590;2023-02-27T07:55:09;102927.88;;;2.56;75.40
78299;BME280;67556;55.656;12.590;2023-02-27T07:57:39;102924.47;;;2.65;74.72
78299;BME280;67556;55.656;12.590;2023-02-27T08:00:07;102923.88;;;2.59;75.61
78299;BME280;67556;55.656;12.590;2023-02-27T08:02:34;102922.34;;;2.61;75.95
78299;BME280;67556;55.656;12.590;2023-02-27T08:05:00;102921.56;;;2.54;76.44
78299;BME280;67556;55.656;12.590;2023-02-27T08:07:27;102915.84;;;2.58;76.52
78299;BME280;67556;55.656;12.590;2023-02-27T08:09:55;102923.88;;;2.59;76.84
78299;BME280;67556;55.656;12.590;2023-02-27T08:12:22;102912.09;;;2.73;76.25
78299;BME280;67556;55.656;12.590;2023-02-27T08:15:08;102916.09;;;2.69;76.84
78299;BME280;67556;55.656;12.590;2023-02-27T08:17:35;102906.81;;;2.82;76.34
78299;BME280;67556;55.656;12.590;2023-02-27T08:20:20;102912.63;;;3.22;74.78
78299;BME280;67556;55.656;12.590;2023-02-27T08:22:47;102917.69;;;3.47;74.53
78299;BME280;67556;55.656;12.590;2023-02-27T08:25:39;102915.16;;;3.57;74.06
78299;BME280;67556;55.656;12.590;2023-02-27T08:28:07;102919.84;;;3.51;74.81
78299;BME280;67556;55.656;12.590;2023-02-27T08:30:52;102921.81;;;3.54;74.27
78299;BME280;67556;55.656;12.590;2023-02-27T08:33:19;102928.81;;;3.53;75.10
78299;BME280;67556;55.656;12.590;2023-02-27T08:35:46;102937.66;;;3.45;75.15
78299;BME280;67556;55.656;12.590;2023-02-27T08:38:15;102929.50;;;4.52;74.12
78299;BME280;67556;55.656;12.590;2023-02-27T08:40:42;102933.34;;;4.09;72.86
78299;BME280;67556;55.656;12.590;2023-02-27T08:43:10;102938.91;;;4.78;71.55
78299;BME280;67556;55.656;12.590;2023-02-27T08:45:36;102937.13;;;4.49;71.27
78299;BME280;67556;55.656;12.590;2023-02-27T08:48:03;102936.84;;;4.65;71.08
78299;BME280;67556;55.656;12.590;2023-02-27T08:50:29;102951.41;;;4.23;72.25
78299;BME280;67556;55.656;12.590;2023-02-27T08:52:56;102956.00;;;4.07;72.27
78299;BME280;67556;55.656;12.590;2023-02-27T08:55:22;102953.94;;;3.86;73.44
78299;BME280;67556;55.656;12.590;2023-02-27T08:57:48;102962.50;;;3.74;73.54
78299;BME280;67556;55.656;12.590;2023-02-27T09:00:18;102949.47;;;3.85;73.11
78299;BME280;67556;55.656;12.590;2023-02-27T09:02:45;102954.47;;;3.73;73.55
78299;BME280;67556;55.656;12.590;2023-02-27T09:05:11;102968.38;;;3.81;73.40
78299;BME280;67556;55.656;12.590;2023-02-27T09:07:38;102961.53;;;3.83;73.31
78299;BME280;67556;55.656;12.590;2023-02-27T09:10:05;102960.88;;;3.94;72.64
78299;BME280;67556;55.656;12.590;2023-02-27T09:12:32;102964.19;;;3.83;72.62
78299;BME280;67556;55.656;12.590;2023-02-27T09:14:59;102951.69;;;3.99;72.08
78299;BME280;67556;55.656;12.590;2023-02-27T09:17:27;102959.59;;;3.99;72.46
78299;BME280;67556;55.656;12.590;2023-02-27T09:19:53;102951.28;;;4.22;72.56
78299;BME280;67556;55.656;12.590;2023-02-27T09:22:20;102944.38;;;4.33;72.05
78299;BME280;67556;55.656;12.590;2023-02-27T09:24:46;102948.09;;;4.35;71.31
78299;BME280;67556;55.656;12.590;2023-02-27T09:27:13;102948.66;;;4.41;71.16
78299;BME280;67556;55.656;12.590;2023-02-27T09:29:39;102946.06;;;4.32;70.72
78299;BME280;67556;55.656;12.590;2023-02-27T09:32:06;102948.34;;;4.38;71.25
78299;BME280;67556;55.656;12.590;2023-02-27T09:34:34;102951.09;;;4.48;69.96
78299;BME280;67556;55.656;12.590;2023-02-27T09:37:01;102954.44;;;4.37;70.69
78299;BME280;67556;55.656;12.590;2023-02-27T09:39:27;102951.09;;;4.48;69.80
78299;BME280;67556;55.656;12.590;2023-02-27T09:41:58;102959.63;;;4.45;69.99
78299;BME280;67556;55.656;12.590;2023-02-27T09:44:36;102949.63;;;4.60;69.65
78299;BME280;67556;55.656;12.590;2023-02-27T09:47:05;102940.84;;;4.51;69.18
78299;BME280;67556;55.656;12.590;2023-02-27T09:49:48;102964.09;;;4.55;69.58
78299;BME280;67556;55.656;12.590;2023-02-27T09:52:17;102966.19;;;4.59;69.52
78299;BME280;67556;55.656;12.590;2023-02-27T09:54:44;102967.03;;;4.77;68.72
78299;BME280;67556;55.656;12.590;2023-02-27T09:57:14;102964.03;;;4.64;69.07
78299;BME280;67556;55.656;12.590;2023-02-27T09:59:47;102959.59;;;4.73;68.79
78299;BME280;67556;55.656;12.590;2023-02-27T10:02:25;102965.13;;;4.76;68.89
78299;BME280;67556;55.656;12.590;2023-02-27T10:05:02;102963.97;;;4.72;68.20
78299;BME280;67556;55.656;12.590;2023-02-27T10:07:39;102958.88;;;4.65;68.80
78299;BME280;67556;55.656;12.590;2023-02-27T10:10:19;102956.09;;;4.83;68.14
78299;BME280;67556;55.656;12.590;2023-02-27T10:12:56;102956.44;;;4.96;67.91
78299;BME280;67556;55.656;12.590;2023-02-27T10:15:30;102966.91;;;5.23;67.23
78299;BME280;67556;55.656;12.590;2023-02-27T10:18:03;102965.41;;;5.17;66.50
78299;BME280;67556;55.656;12.590;2023-02-27T10:20:36;102969.56;;;5.23;66.65
78299;BME280;67556;55.656;12.590;2023-02-27T10:23:10;102971.28;;;5.23;66.06
78299;BME280;67556;55.656;12.590;2023-02-27T10:25:39;102981.47;;;5.29;65.94
78299;BME280;67556;55.656;12.590;2023-02-27T10:28:11;102977.50;;;5.63;65.19
78299;BME280;67556;55.656;12.590;2023-02-27T10:30:38;102987.28;;;5.64;64.62
78299;BME280;67556;55.656;12.590;2023-02-27T10:33:07;102984.91;;;5.57;64.72
78299;BME280;67556;55.656;12.590;2023-02-27T10:35:38;102988.97;;;5.53;63.97
78299;BME280;67556;55.656;12.590;2023-02-27T10:38:11;102986.66;;;5.66;63.79
78299;BME280;67556;55.656;12.590;2023-02-27T10:40:40;102993.47;;;5.54;64.06
78299;BME280;67556;55.656;12.590;2023-02-27T10:43:07;102982.38;;;5.58;63.42
78299;BME280;67556;55.656;12.590;2023-02-27T10:45:35;102992.66;;;5.55;63.27
78299;BME280;67556;55.656;12.590;2023-02-27T10:48:01;102993.16;;;5.41;63.26
78299;BME280;67556;55.656;12.590;2023-02-27T10:50:30;102998.47;;;5.51;62.98
78299;BME280;67556;55.656;12.590;2023-02-27T10:53:00;103002.59;;;5.58;63.79
78299;BME280;67556;55.656;12.590;2023-02-27T10:55:29;102993.16;;;5.70;63.80
78299;BME280;67556;55.656;12.590;2023-02-27T10:57:57;102989.59;;;5.80;62.95
78299;BME280;67556;55.656;12.590;2023-02-27T11:00:28;102996.03;;;6.02;62.65
78299;BME280;67556;55.656;12.590;2023-02-27T11:02:57;102997.72;;;6.41;63.20
78299;BME280;67556;55.656;12.590;2023-02-27T11:05:26;102999.28;;;6.29;60.19
78299;BME280;67556;55.656;12.590;2023-02-27T11:07:53;102991.75;;;6.33;61.04
78299;BME280;67556;55.656;12.590;2023-02-27T11:10:24;102990.69;;;6.41;60.57
78299;BME280;67556;55.656;12.590;2023-02-27T11:12:59;102989.78;;;6.41;60.17
78299;BME280;67556;55.656;12.590;2023-02-27T11:15:35;102974.00;;;6.63;59.01
78299;BME280;67556;55.656;12.590;2023-02-27T11:18:23;102992.16;;;6.79;59.41
78299;BME280;67556;55.656;12.590;2023-02-27T11:21:19;102986.56;;;6.96;58.52
78299;BME280;67556;55.656;12.590;2023-02-27T11:23:58;102928.75;;;6.49;57.98
78299;BME280;67556;55.656;12.590;2023-02-27T11:26:33;102977.28;;;6.81;58.17
78299;BME280;67556;55.656;12.590;2023-02-27T11:29:12;102979.94;;;6.60;58.13
78299;BME280;67556;55.656;12.590;2023-02-27T11:31:51;102968.84;;;6.54;58.33
78299;BME280;67556;55.656;12.590;2023-02-27T11:34:23;102977.94;;;6.78;58.39
78299;BME280;67556;55.656;12.590;2023-02-27T11:37:00;102891.81;;;6.31;57.59
78299;BME280;67556;55.656;12.590;2023-02-27T11:39:38;102933.88;;;6.68;57.11
78299;BME280;67556;55.656;12.590;2023-02-27T11:42:28;102910.09;;;6.38;58.75
78299;BME280;67556;55.656;12.590;2023-02-27T11:45:04;102952.16;;;6.55;58.57
78299;BME280;67556;55.656;12.590;2023-02-27T11:48:07;102916.81;;;6.14;58.92
78299;BME280;67556;55.656;12.590;2023-02-27T11:51:10;102905.31;;;6.13;57.12
78299;BME280;67556;55.656;12.590;2023-02-27T11:54:14;102887.94;;;5.86;56.93
78299;BME280;67556;55.656;12.590;2023-02-27T11:57:01;102880.84;;;5.95;57.80
78299;BME280;67556;55.656;12.590;2023-02-27T11:59:47;102965.28;;;6.54;57.82
78299;BME280;67556;55.656;12.590;2023-02-27T12:02:22;102920.41;;;6.14;58.45
78299;BME280;67556;55.656;12.590;2023-02-27T12:04:56;102966.72;;;6.60;58.18
78299;BME280;67556;55.656;12.590;2023-02-27T12:07:31;102909.69;;;6.33;57.93
78299;BME280;67556;55.656;12.590;2023-02-27T12:10:09;102918.69;;;6.45;58.61
78299;BME280;67556;55.656;12.590;2023-02-27T12:12:51;102894.22;;;6.17;58.55
78299;BME280;67556;55.656;12.590;2023-02-27T12:15:28;102919.88;;;6.39;59.03
78299;BME280;67556;55.656;12.590;2023-02-27T12:18:10;102918.03;;;6.58;58.18
78299;BME280;67556;55.656;12.590;2023-02-27T12:20:49;102873.97;;;6.18;59.00
78299;BME280;67556;55.656;12.590;2023-02-27T12:23:39;102875.13;;;6.32;59.02
78299;BME280;67556;55.656;12.590;2023-02-27T12:26:21;102885.41;;;6.80;58.74
78299;BME280;67556;55.656;12.590;2023-02-27T12:28:59;102890.81;;;6.81;59.81
78299;BME280;67556;55.656;12.590;2023-02-27T12:31:49;102864.75;;;6.65;59.33
78299;BME280;67556;55.656;12.590;2023-02-27T12:34:24;102959.38;;;7.41;59.03
78299;BME280;67556;55.656;12.590;2023-02-27T12:37:00;102909.91;;;7.19;59.82
78299;BME280;67556;55.656;12.590;2023-02-27T12:39:30;102922.53;;;7.44;59.49
78299;BME280;67556;55.656;12.590;2023-02-27T12:45:15;102964.19;;;7.67;60.29
78299;BME280;67556;55.656;12.590;2023-02-27T12:47:52;102963.50;;;7.69;60.27
78299;BME280;67556;55.656;12.590;2023-02-27T12:50:23;102959.25;;;7.71;60.89
78299;BME280;67556;55.656;12.590;2023-02-27T12:52:59;102958.19;;;7.69;60.66
78299;BME280;67556;55.656;12.590;2023-02-27T12:55:30;102962.13;;;7.74;61.24
78299;BME280;67556;55.656;12.590;2023-02-27T12:58:20;102966.03;;;7.68;61.35
78299;BME280;67556;55.656;12.590;2023-02-27T13:00:51;102965.22;;;7.69;61.32
78299;BME280;67556;55.656;12.590;2023-02-27T13:03:22;102965.94;;;7.56;62.19
78299;BME280;67556;55.656;12.590;2023-02-27T13:05:57;102961.75;;;7.48;62.23
78299;BME280;67556;55.656;12.590;2023-02-27T13:08:48;102968.19;;;7.30;62.83
78299;BME280;67556;55.656;12.590;2023-02-27T13:11:23;102968.47;;;7.22;63.22
78299;BME280;67556;55.656;12.590;2023-02-27T13:13:55;102966.63;;;7.21;63.98
78299;BME280;67556;55.656;12.590;2023-02-27T13:16:25;102964.19;;;7.35;63.42
78299;BME280;67556;55.656;12.590;2023-02-27T13:18:58;102964.81;;;7.42;63.40
78299;BME280;67556;55.656;12.590;2023-02-27T13:21:32;102955.13;;;7.43;63.53
78299;BME280;67556;55.656;12.590;2023-02-27T13:24:15;102960.94;;;7.49;63.49